createdAt,value
2022-12-01T00:01:21.866Z,16.80
2022-12-01T00:03:50.281Z,15.70
2022-12-01T00:06:20.192Z,19.00
2022-12-01T00:09:19.198Z,17.50
2022-12-01T00:11:49.624Z,16.77
2022-12-01T00:14:18.063Z,18.17
2022-12-01T00:16:46.668Z,18.10
2022-12-01T00:19:15.238Z,19.17
2022-12-01T00:21:43.616Z,18.57
2022-12-01T00:24:12.691Z,18.63
2022-12-01T00:26:41.222Z,17.77
2022-12-01T00:29:10.931Z,17.37
2022-12-01T00:31:39.340Z,18.43
2022-12-01T00:34:11.382Z,18.30
2022-12-01T00:36:40.431Z,17.00
2022-12-01T00:39:08.524Z,18.30
2022-12-01T00:41:36.949Z,17.97
2022-12-01T00:44:05.342Z,17.07
2022-12-01T00:46:34.823Z,16.03
2022-12-01T00:49:03.129Z,15.90
2022-12-01T00:51:31.733Z,16.73
2022-12-01T00:54:00.193Z,18.40
2022-12-01T00:56:28.577Z,16.97
2022-12-01T00:58:56.993Z,16.40
2022-12-01T01:01:25.135Z,16.43
2022-12-01T01:03:54.948Z,15.60
2022-12-01T01:06:23.021Z,16.67
2022-12-01T01:08:51.561Z,17.00
2022-12-01T01:11:19.624Z,17.23
2022-12-01T01:13:48.136Z,16.00
2022-12-01T01:16:17.445Z,16.33
2022-12-01T01:18:45.878Z,15.17
2022-12-01T01:21:17.785Z,18.37
2022-12-01T01:23:46.200Z,16.27
2022-12-01T01:26:16.237Z,17.67
2022-12-01T01:28:44.943Z,17.67
2022-12-01T01:31:15.932Z,16.70
2022-12-01T01:33:44.546Z,17.20
2022-12-01T01:36:13.243Z,17.63
2022-12-01T01:38:43.030Z,18.00
2022-12-01T01:41:11.919Z,17.47
2022-12-01T01:43:42.388Z,17.93
2022-12-01T01:46:12.184Z,16.57
2022-12-01T01:48:42.559Z,17.30
2022-12-01T01:51:14.232Z,16.63
2022-12-01T01:53:45.104Z,18.23
2022-12-01T01:56:13.350Z,17.63
2022-12-01T01:58:42.261Z,18.23
2022-12-01T02:01:10.684Z,15.67
2022-12-01T02:03:39.920Z,17.00
2022-12-01T02:06:09.896Z,16.10
2022-12-01T02:08:39.017Z,15.73
2022-12-01T02:11:24.460Z,15.77
2022-12-01T02:13:55.309Z,14.60
2022-12-01T02:16:26.742Z,15.63
2022-12-01T02:19:01.122Z,16.60
2022-12-01T02:21:38.721Z,15.77
2022-12-01T02:24:22.353Z,14.83
2022-12-01T02:26:54.326Z,15.07
2022-12-01T02:29:50.714Z,15.90
2022-12-01T02:32:26.653Z,16.10
2022-12-01T02:34:58.413Z,16.23
2022-12-01T02:37:28.828Z,17.47
2022-12-01T02:40:03.557Z,15.00
2022-12-01T02:42:51.056Z,16.20
2022-12-01T02:45:22.146Z,17.07
2022-12-01T02:47:54.291Z,15.73
2022-12-01T02:50:24.028Z,16.20
2022-12-01T02:52:52.540Z,17.90
2022-12-01T02:55:20.954Z,16.67
2022-12-01T02:57:49.422Z,15.60
2022-12-01T03:00:18.753Z,16.33
2022-12-01T03:02:59.019Z,16.87
2022-12-01T03:05:30.582Z,16.20
2022-12-01T03:08:03.524Z,17.47
2022-12-01T03:10:42.456Z,16.90
2022-12-01T03:13:17.481Z,16.00
2022-12-01T03:15:49.592Z,16.53
2022-12-01T03:18:24.926Z,19.30
2022-12-01T03:20:58.369Z,14.83
2022-12-01T03:23:28.695Z,17.23
2022-12-01T03:26:00.079Z,15.57
2022-12-01T03:28:31.253Z,16.17
2022-12-01T03:31:03.878Z,16.17
2022-12-01T03:33:35.789Z,14.90
2022-12-01T03:36:06.969Z,14.80
2022-12-01T03:38:36.597Z,15.87
2022-12-01T03:41:08.029Z,15.03
2022-12-01T03:43:38.268Z,16.47
2022-12-01T03:46:09.295Z,14.33
2022-12-01T03:48:39.162Z,15.10
2022-12-01T03:51:14.003Z,13.83
2022-12-01T03:53:47.111Z,15.17
2022-12-01T03:56:17.697Z,12.93
2022-12-01T03:58:47.305Z,12.90
2022-12-01T04:01:16.072Z,13.20
2022-12-01T04:03:47.410Z,13.37
2022-12-01T04:06:15.783Z,14.53
2022-12-01T04:08:44.215Z,15.03
2022-12-01T04:11:32.862Z,14.13
2022-12-01T04:14:01.430Z,11.97
2022-12-01T04:16:29.801Z,13.93
2022-12-01T04:18:59.582Z,13.77
2022-12-01T04:21:28.038Z,12.23
2022-12-01T04:24:02.223Z,13.30
2022-12-01T04:26:31.165Z,13.30
2022-12-01T04:29:00.228Z,11.67
2022-12-01T04:31:28.894Z,12.40
2022-12-01T04:33:58.960Z,14.00
2022-12-01T04:36:27.801Z,12.40
2022-12-01T04:38:55.910Z,13.53
2022-12-01T04:41:24.336Z,12.97
2022-12-01T04:43:54.650Z,13.00
2022-12-01T04:46:23.259Z,13.50
2022-12-01T04:48:51.923Z,12.47
2022-12-01T04:51:22.438Z,13.20
2022-12-01T04:53:50.966Z,11.73
2022-12-01T04:56:19.397Z,12.90
2022-12-01T04:58:47.895Z,12.77
2022-12-01T05:01:17.015Z,13.33
2022-12-01T05:03:47.063Z,12.93
2022-12-01T05:06:17.008Z,12.33
2022-12-01T05:08:46.867Z,12.50
2022-12-01T05:11:15.986Z,12.47
2022-12-01T05:13:45.255Z,13.50
2022-12-01T05:16:15.552Z,12.23
2022-12-01T05:18:43.641Z,13.80
2022-12-01T05:21:11.808Z,13.60
2022-12-01T05:23:40.524Z,14.03
2022-12-01T05:26:10.712Z,13.07
2022-12-01T05:28:40.871Z,12.77
2022-12-01T05:31:09.421Z,13.87
2022-12-01T05:33:37.823Z,15.03
2022-12-01T05:36:06.525Z,13.50
2022-12-01T05:38:34.888Z,14.00
2022-12-01T05:41:03.220Z,14.83
2022-12-01T05:43:32.984Z,12.87
2022-12-01T05:46:01.050Z,15.23
2022-12-01T05:48:29.761Z,14.10
2022-12-01T05:50:58.117Z,15.13
2022-12-01T05:53:26.430Z,13.80
2022-12-01T05:55:55.269Z,13.70
2022-12-01T05:58:23.886Z,13.60
2022-12-01T06:00:53.691Z,14.37
2022-12-01T06:03:21.997Z,14.20
2022-12-01T06:05:50.512Z,25.30
2022-12-01T06:08:18.957Z,16.87
2022-12-01T06:10:47.852Z,13.87
2022-12-01T06:13:16.261Z,14.67
2022-12-01T06:15:44.721Z,15.00
2022-12-01T06:18:14.476Z,14.07
2022-12-01T06:20:42.891Z,14.40
2022-12-01T06:23:11.323Z,14.73
2022-12-01T06:25:39.654Z,14.13
2022-12-01T06:28:08.072Z,15.40
2022-12-01T06:30:36.458Z,15.40
2022-12-01T06:33:04.830Z,14.93
2022-12-01T06:35:34.693Z,15.53
2022-12-01T06:38:03.199Z,12.50
2022-12-01T07:01:39.552Z,13.63
2022-12-01T07:04:07.982Z,15.67
2022-12-01T07:06:36.326Z,14.07
2022-12-01T07:09:04.658Z,13.60
2022-12-01T07:11:36.100Z,15.40
2022-12-01T07:14:04.552Z,15.57
2022-12-01T07:16:32.897Z,15.30
2022-12-01T07:19:02.695Z,14.60
2022-12-01T07:21:30.991Z,14.47
2022-12-01T07:23:59.313Z,16.33
2022-12-01T07:26:27.625Z,15.37
2022-12-01T07:28:55.970Z,13.77
2022-12-01T07:31:24.360Z,14.70
2022-12-01T07:33:53.729Z,15.33
2022-12-01T07:36:23.115Z,15.23
2022-12-01T07:38:51.500Z,13.90
2022-12-01T07:41:20.528Z,15.27
2022-12-01T07:43:49.335Z,15.77
2022-12-01T07:46:23.111Z,17.40
2022-12-01T07:48:52.441Z,16.03
2022-12-01T07:51:20.979Z,16.27
2022-12-01T07:53:51.471Z,17.40
2022-12-01T07:56:20.649Z,17.80
2022-12-01T07:58:49.046Z,14.77
2022-12-01T08:01:19.289Z,17.33
2022-12-01T08:03:47.767Z,15.53
2022-12-01T08:06:16.133Z,16.83
2022-12-01T08:08:44.212Z,16.90
2022-12-01T08:11:14.491Z,15.73
2022-12-01T08:13:43.314Z,18.20
2022-12-01T08:16:13.451Z,17.63
2022-12-01T08:18:42.750Z,17.10
2022-12-01T08:21:12.093Z,17.30
2022-12-01T08:23:41.544Z,17.03
2022-12-01T08:26:12.480Z,17.17
2022-12-01T08:28:42.430Z,18.20
2022-12-01T08:31:11.913Z,17.27
2022-12-01T08:33:40.276Z,17.97
2022-12-01T08:36:09.063Z,14.00
2022-12-01T08:38:37.429Z,19.37
2022-12-01T08:41:07.366Z,18.80
2022-12-01T08:43:57.344Z,19.60
2022-12-01T08:46:28.762Z,19.70
2022-12-01T08:48:57.826Z,21.07
2022-12-01T08:51:26.928Z,20.57
2022-12-01T08:53:56.803Z,21.20
2022-12-01T08:56:26.989Z,20.27
2022-12-01T08:58:55.762Z,20.43
2022-12-01T09:01:25.681Z,20.03
2022-12-01T09:04:06.648Z,21.50
2022-12-01T09:06:36.291Z,20.93
2022-12-01T09:09:04.928Z,21.67
2022-12-01T09:11:33.316Z,22.03
2022-12-01T09:14:01.882Z,20.63
2022-12-01T09:16:30.260Z,20.47
2022-12-01T09:18:59.779Z,20.90
2022-12-01T09:21:30.370Z,19.73
2022-12-01T09:23:58.753Z,21.67
2022-12-01T09:26:27.485Z,19.20
2022-12-01T09:28:57.778Z,22.73
2022-12-01T09:31:26.383Z,20.93
2022-12-01T09:34:00.155Z,19.67
2022-12-01T09:36:30.445Z,20.47
2022-12-01T09:38:59.069Z,21.27
2022-12-01T09:41:28.956Z,20.47
2022-12-01T09:44:01.708Z,20.70
2022-12-01T09:46:32.540Z,22.90
2022-12-01T09:49:04.816Z,20.40
2022-12-01T09:51:37.557Z,20.70
2022-12-01T09:54:06.102Z,19.57
2022-12-01T09:56:41.611Z,20.43
2022-12-01T09:59:17.651Z,18.30
2022-12-01T10:01:46.912Z,19.13
2022-12-01T10:04:18.218Z,20.40
2022-12-01T10:06:48.268Z,18.60
2022-12-01T10:09:20.276Z,19.93
2022-12-01T10:11:49.268Z,21.37
2022-12-01T10:14:20.477Z,19.53
2022-12-01T10:16:57.189Z,17.40
2022-12-01T10:19:31.226Z,18.43
2022-12-01T10:22:06.502Z,18.10
2022-12-01T10:24:41.885Z,19.30
2022-12-01T10:27:16.234Z,17.50
2022-12-01T10:29:49.222Z,18.07
2022-12-01T10:32:20.488Z,18.63
2022-12-01T10:34:52.261Z,16.47
2022-12-01T10:37:25.057Z,16.90
2022-12-01T10:39:54.463Z,16.77
2022-12-01T10:42:27.197Z,17.83
2022-12-01T10:44:56.697Z,16.50
2022-12-01T10:47:25.983Z,17.80
2022-12-01T10:49:56.070Z,17.77
2022-12-01T10:52:36.419Z,17.97
2022-12-01T10:55:07.485Z,18.00
2022-12-01T10:57:37.604Z,18.77
2022-12-01T11:00:09.506Z,20.57
2022-12-01T11:02:38.028Z,16.87
2022-12-01T11:05:09.331Z,16.63
2022-12-01T11:07:44.272Z,19.10
2022-12-01T11:10:18.961Z,19.67
2022-12-01T11:12:48.519Z,18.30
2022-12-01T11:15:22.828Z,16.93
2022-12-01T11:17:58.314Z,17.20
2022-12-01T11:20:32.055Z,18.60
2022-12-01T11:23:20.587Z,17.07
2022-12-01T11:25:57.597Z,19.77
2022-12-01T11:28:26.310Z,17.20
2022-12-01T11:30:57.570Z,17.03
2022-12-01T11:33:26.089Z,18.90
2022-12-01T11:35:56.076Z,18.03
2022-12-01T11:38:31.719Z,15.80
2022-12-01T11:41:00.374Z,16.57
2022-12-01T11:43:31.458Z,17.63
2022-12-01T11:46:03.819Z,17.90
2022-12-01T11:48:34.455Z,17.90
2022-12-01T11:51:07.714Z,18.70
2022-12-01T11:53:37.696Z,18.07
2022-12-01T11:56:20.966Z,17.07
2022-12-01T11:58:51.253Z,16.80
2022-12-01T12:01:32.303Z,19.03
2022-12-01T12:04:15.579Z,19.23
2022-12-01T12:06:54.349Z,18.37
2022-12-01T12:09:44.936Z,19.33
2022-12-01T12:12:25.946Z,18.27
2022-12-01T12:15:00.125Z,16.80
2022-12-01T12:17:45.738Z,15.93
2022-12-01T12:20:22.720Z,17.20
2022-12-01T12:23:03.789Z,16.43
2022-12-01T12:25:44.373Z,16.37
2022-12-01T12:28:26.911Z,17.13
2022-12-01T12:31:04.333Z,15.80
2022-12-01T12:34:00.540Z,16.40
2022-12-01T12:36:41.254Z,16.03
2022-12-01T12:39:25.440Z,16.37
2022-12-01T12:41:55.240Z,16.93
2022-12-01T12:44:43.404Z,16.33
2022-12-01T12:47:34.159Z,18.87
2022-12-01T12:50:14.328Z,16.80
2022-12-01T12:52:46.599Z,17.30
2022-12-01T12:55:21.146Z,16.90
2022-12-01T12:57:53.837Z,16.73
2022-12-01T13:00:30.375Z,15.93
2022-12-01T13:03:04.846Z,16.37
2022-12-01T13:05:40.073Z,15.60
2022-12-01T13:08:12.433Z,14.70
2022-12-01T13:10:47.975Z,14.90
2022-12-01T13:13:25.842Z,15.20
2022-12-01T13:15:56.536Z,12.67
2022-12-01T13:18:29.792Z,13.30
2022-12-01T13:20:58.892Z,13.60
2022-12-01T13:23:27.908Z,14.67
2022-12-01T13:26:00.559Z,14.10
2022-12-01T13:28:35.183Z,14.90
2022-12-01T13:31:06.617Z,14.57
2022-12-01T13:33:37.149Z,14.77
2022-12-01T13:39:03.463Z,16.30
2022-12-01T13:41:35.631Z,13.57
2022-12-01T13:44:07.326Z,14.97
2022-12-01T13:46:52.881Z,12.37
2022-12-01T13:49:36.891Z,12.77
2022-12-01T13:52:33.310Z,12.20
2022-12-01T13:55:20.355Z,13.33
2022-12-01T13:58:13.197Z,13.27
2022-12-01T14:00:43.115Z,13.60
2022-12-01T14:03:40.855Z,12.13
2022-12-01T14:06:26.033Z,14.37
2022-12-01T14:08:56.579Z,13.37
2022-12-01T14:11:26.728Z,13.77
2022-12-01T14:13:57.099Z,13.73
2022-12-01T14:16:45.844Z,13.53
2022-12-01T14:19:29.309Z,12.83
2022-12-01T14:21:58.624Z,13.47
2022-12-01T14:24:28.892Z,11.50
2022-12-01T14:26:57.464Z,13.23
2022-12-01T14:29:27.848Z,13.50
2022-12-01T14:32:17.219Z,12.37
2022-12-01T14:34:51.061Z,12.57
2022-12-01T14:37:20.957Z,11.97
2022-12-01T14:39:52.219Z,11.77
2022-12-01T14:42:49.374Z,11.33
2022-12-01T14:45:19.057Z,12.50
2022-12-01T14:47:53.609Z,12.67
2022-12-01T14:50:25.140Z,11.57
2022-12-01T14:52:55.131Z,11.90
2022-12-01T14:55:27.100Z,11.60
2022-12-01T14:58:05.015Z,12.30
2022-12-01T15:00:37.096Z,12.80
2022-12-01T15:03:08.427Z,12.93
2022-12-01T15:05:43.373Z,12.30
2022-12-01T15:10:51.730Z,12.00
2022-12-01T15:13:24.009Z,12.20
2022-12-01T15:15:53.457Z,14.40
2022-12-01T15:18:25.428Z,13.10
2022-12-01T15:20:59.880Z,13.00
2022-12-01T15:23:28.459Z,11.97
2022-12-01T15:25:57.630Z,13.17
2022-12-01T15:28:31.647Z,13.17
2022-12-01T15:31:00.505Z,14.33
2022-12-01T15:33:35.411Z,14.13
2022-12-01T15:36:08.731Z,12.77
2022-12-01T15:38:38.017Z,12.80
2022-12-01T15:43:57.948Z,13.93
2022-12-01T15:46:29.849Z,14.87
2022-12-01T15:49:11.335Z,13.53
2022-12-01T15:51:40.841Z,12.63
2022-12-01T15:54:19.454Z,12.30
2022-12-01T15:56:47.949Z,14.30
2022-12-01T15:59:26.008Z,13.30
2022-12-01T16:01:54.560Z,13.50
2022-12-01T16:04:24.937Z,15.73
2022-12-01T16:06:57.407Z,13.83
2022-12-01T16:09:28.968Z,14.43
2022-12-01T16:12:07.721Z,14.33
2022-12-01T16:14:36.477Z,12.67
2022-12-01T16:17:05.727Z,12.03
2022-12-01T16:19:35.976Z,10.70
2022-12-01T16:22:15.099Z,14.20
2022-12-01T16:24:46.521Z,12.83
2022-12-01T16:27:20.212Z,13.73
2022-12-01T16:29:50.758Z,12.43
2022-12-01T16:32:21.595Z,11.67
2022-12-01T16:34:50.899Z,12.83
2022-12-01T16:37:21.725Z,12.80
2022-12-01T16:39:50.077Z,12.33
2022-12-01T16:42:20.582Z,13.43
2022-12-01T16:44:49.251Z,12.70
2022-12-01T16:47:19.278Z,13.17
2022-12-01T16:49:47.659Z,12.87
2022-12-01T16:52:43.005Z,14.03
2022-12-01T16:55:06.171Z,11.57
2022-12-01T16:57:34.585Z,13.90
2022-12-01T17:00:03.081Z,13.33
2022-12-01T17:02:31.617Z,13.03
2022-12-01T17:04:59.964Z,15.17
2022-12-01T17:07:28.472Z,14.63
2022-12-01T17:09:56.813Z,13.87
2022-12-01T17:12:26.949Z,14.00
2022-12-01T17:14:55.297Z,13.53
2022-12-01T17:17:23.757Z,16.80
2022-12-01T17:19:53.701Z,15.30
2022-12-01T17:22:22.082Z,14.27
2022-12-01T17:24:50.787Z,14.13
2022-12-01T17:27:19.457Z,13.33
2022-12-01T17:29:48.995Z,13.43
2022-12-01T17:32:17.362Z,13.67
2022-12-01T17:34:45.808Z,14.47
2022-12-01T17:37:20.469Z,11.50
2022-12-01T17:39:49.414Z,12.90
2022-12-01T17:42:18.118Z,14.17
2022-12-01T17:44:46.603Z,13.70
2022-12-01T17:47:16.674Z,13.03
2022-12-01T17:49:47.088Z,12.53
2022-12-01T17:52:15.698Z,15.73
2022-12-01T17:54:44.229Z,15.23
2022-12-01T17:57:12.932Z,14.20
2022-12-01T17:59:41.330Z,13.40
2022-12-01T18:02:11.764Z,11.97
2022-12-01T18:04:41.679Z,12.40
2022-12-01T18:07:10.238Z,13.40
2022-12-01T18:09:38.571Z,15.33
2022-12-01T18:12:07.160Z,13.87
2022-12-01T18:14:37.569Z,12.97
2022-12-01T18:17:06.224Z,13.67
2022-12-01T18:19:34.554Z,14.93
2022-12-01T18:22:04.350Z,13.80
2022-12-01T18:24:32.667Z,13.80
2022-12-01T18:27:01.166Z,13.90
2022-12-01T18:29:29.508Z,13.30
2022-12-01T18:31:58.311Z,11.87
2022-12-01T18:34:26.991Z,12.10
2022-12-01T18:36:55.461Z,14.00
2022-12-01T18:39:25.208Z,12.33
2022-12-01T18:41:53.542Z,12.90
2022-12-01T18:44:21.979Z,12.63
2022-12-01T18:46:50.435Z,12.53
2022-12-01T18:49:18.848Z,13.17
2022-12-01T18:51:47.245Z,12.50
2022-12-01T18:54:16.670Z,12.17
2022-12-01T18:56:47.074Z,13.67
2022-12-01T18:59:17.279Z,12.30
2022-12-01T19:01:46.501Z,11.93
2022-12-01T19:04:16.800Z,11.17
2022-12-01T19:06:45.942Z,14.10
2022-12-01T19:09:15.587Z,12.77
2022-12-01T19:11:44.343Z,11.90
2022-12-01T19:14:16.867Z,12.73
2022-12-01T19:16:45.268Z,11.27
2022-12-01T19:19:13.618Z,11.53
2022-12-01T19:21:42.836Z,10.30
2022-12-01T19:24:11.251Z,11.80
2022-12-01T19:26:39.780Z,10.83
2022-12-01T19:29:08.128Z,10.27
2022-12-01T19:31:38.037Z,10.50
2022-12-01T19:34:06.450Z,11.53
2022-12-01T19:36:35.196Z,11.00
2022-12-01T19:39:05.970Z,12.10
2022-12-01T19:41:35.829Z,12.57
2022-12-01T19:44:04.396Z,13.67
2022-12-01T19:46:32.776Z,12.50
2022-12-01T19:49:03.124Z,10.57
2022-12-01T19:51:33.526Z,11.77
2022-12-01T19:54:01.968Z,11.43
2022-12-01T19:56:31.194Z,11.83
2022-12-01T19:58:59.972Z,11.57
2022-12-01T20:01:28.761Z,10.63
2022-12-01T20:03:57.245Z,12.23
2022-12-01T20:06:28.109Z,11.00
2022-12-01T20:08:58.217Z,12.00
2022-12-01T20:11:26.977Z,11.07
2022-12-01T20:13:55.327Z,11.33
2022-12-01T20:16:24.548Z,10.80
2022-12-01T20:18:53.440Z,9.03
2022-12-01T20:21:23.541Z,9.37
2022-12-01T20:23:57.729Z,9.70
2022-12-01T20:26:30.407Z,9.60
2022-12-01T20:29:01.555Z,10.33
2022-12-01T20:31:30.809Z,9.90
2022-12-01T20:34:00.203Z,11.20
2022-12-01T20:36:29.672Z,11.27
2022-12-01T20:38:59.380Z,11.40
2022-12-01T20:41:27.899Z,9.80
2022-12-01T20:43:58.512Z,10.80
2022-12-01T20:46:29.620Z,11.37
2022-12-01T20:48:58.070Z,10.80
2022-12-01T20:51:26.451Z,12.00
2022-12-01T20:54:19.788Z,12.47
2022-12-01T20:56:44.575Z,12.13
2022-12-01T20:59:13.157Z,13.50
2022-12-01T21:01:41.786Z,14.30
2022-12-01T21:04:10.272Z,14.67
2022-12-01T21:06:38.725Z,13.60
2022-12-01T21:09:07.497Z,12.73
2022-12-01T21:11:54.853Z,12.67
2022-12-01T21:14:26.578Z,13.50
2022-12-01T21:16:56.556Z,12.67
2022-12-01T21:19:28.220Z,13.60
2022-12-01T21:21:56.643Z,11.23
2022-12-01T21:24:33.519Z,12.60
2022-12-01T21:27:10.747Z,11.13
2022-12-01T21:29:41.916Z,11.30
2022-12-01T21:32:14.352Z,12.70
2022-12-01T21:34:43.004Z,12.20
2022-12-01T21:37:21.760Z,11.87
2022-12-01T21:39:51.143Z,12.00
2022-12-01T21:42:20.869Z,11.80
2022-12-01T21:44:51.207Z,11.63
2022-12-01T21:47:21.635Z,10.90
2022-12-01T21:49:52.763Z,12.07
2022-12-01T21:52:23.465Z,11.47
2022-12-01T21:54:52.045Z,11.67
2022-12-01T21:57:38.547Z,12.47
2022-12-01T22:00:25.997Z,10.47
2022-12-01T22:03:04.958Z,12.00
2022-12-01T22:05:35.815Z,12.03
2022-12-01T22:08:09.720Z,11.13
2022-12-01T22:10:56.122Z,11.13
2022-12-01T22:13:26.491Z,9.93
2022-12-01T22:15:56.319Z,10.83
2022-12-01T22:18:25.349Z,11.23
2022-12-01T22:20:53.881Z,10.20
2022-12-01T22:23:23.008Z,10.50
2022-12-01T22:25:51.463Z,11.17
2022-12-01T22:28:23.280Z,10.17
2022-12-01T22:30:51.904Z,10.83
2022-12-01T22:33:23.153Z,11.37
2022-12-01T22:35:52.003Z,10.63
2022-12-01T22:38:31.362Z,10.33
2022-12-01T22:41:00.524Z,10.90
2022-12-01T22:43:43.293Z,9.90
2022-12-01T22:46:22.120Z,11.27
2022-12-01T22:48:53.870Z,10.93
2022-12-01T22:51:39.823Z,13.23
2022-12-01T22:54:20.230Z,12.67
2022-12-01T22:56:49.944Z,11.93
2022-12-01T22:59:20.665Z,13.40
2022-12-01T23:01:50.928Z,13.80
2022-12-01T23:04:26.531Z,14.40
2022-12-01T23:07:00.071Z,11.77
2022-12-01T23:09:32.779Z,13.87
2022-12-01T23:12:02.461Z,13.50
2022-12-01T23:14:30.819Z,12.60
2022-12-01T23:17:06.832Z,14.97
2022-12-01T23:19:36.808Z,13.40
2022-12-01T23:22:05.168Z,14.33
2022-12-01T23:24:34.123Z,13.17
2022-12-01T23:27:03.037Z,13.00
2022-12-01T23:29:32.045Z,15.10
2022-12-01T23:32:01.468Z,13.57
2022-12-01T23:34:30.164Z,17.07
2022-12-01T23:37:00.083Z,14.97
2022-12-01T23:39:31.967Z,14.13
2022-12-01T23:42:01.236Z,14.33
2022-12-01T23:44:36.125Z,14.23
2022-12-01T23:47:05.111Z,14.13
2022-12-01T23:49:34.509Z,13.80
2022-12-01T23:52:04.847Z,15.30
2022-12-01T23:54:34.045Z,15.43
2022-12-01T23:57:04.370Z,14.70
2022-12-01T23:59:33.306Z,13.37
